Hasanuddin International Airport
WAAA : rendu visible

Aérodrome :











RETROUVEZ-NOUS SUR...

 
LOGIN :

S'inscrire | Disclaimer

   EN    FR    IT 

 









Légende :    VFR   VFR Marginal   IFR   IFR Intensif   IFR Très Intensif
Visi : 
Plafond : 
>= 8 km
>= 3000ft
5 à 8 km
1000 à 3000 ft
1500m à 5 km
500 à 1000 ft
800 à 1500m
200 à 500 ft
< 800m
< 200 ft
Symboles :   Orages  Brouillard  Fortes neiges  Fortes précipitations  Vent > 20 kt







- Altitude de l'aérodrome : 47 ft
- Code IATA : UPG


WAAA - Hasanuddin International

DERNIER METAR :
  • 260930Z 30006KT 270V330 9999 FEW019 30/25 Q1009 NOSIG

METARs EXPIRÉS :
  • 260900Z 31006KT 270V340 9999 FEW019 31/25 Q1009 NOSIG
  • 260830Z 30008KT 9999 FEW020 31/25 Q1009
  • 260800Z 29008KT 260V330 9999 FEW019 31/26 Q1009 NOSIG
  • 260730Z 29009KT 9999 FEW019 31/26 Q1009 NOSIG
  • 260700Z 33006KT 9999 FEW019 31/26 Q1009 NOSIG

TAF TAF WAAA
Valide du 26 à 06h jusqu'au 27 à 12h UTC


260500Z 2606/2712 32010KT 9000 SCT019
TEMPO 2607/2611 6000 -RA FEW018CB
BECMG 2611/2613 10004KT 8000
BECMG 2621/2623 9999
FIR WAAF / Asie



MET'MAP, la Météo Aéronautique d'un coup d'oeil ! - Copyright ORBIFLY Décembre 2007 - Disclaimer

ORBIFLY MET'MAP TEAM :

Programmation & Développement : Alexandra Zaïnal
Conception & Développement : Baudouin d'Aumeries
Co-Programmation & Développement : Marc-Olivier Méhu
Soutien technique & logistique : Manuel Goepfert

Contact : metmap@orbifly.com




SOURCES & CREDITS :

   NOAA       Earth
Advisory